sensor_id;sensor_type;location;lat;lon;timestamp;temperature;humidity
4596;DHT22;2310;49.978;8.742;2024-01-30T00:01:37;6.20;99.90
4596;DHT22;2310;49.978;8.742;2024-01-30T00:05:39;6.30;99.90
4596;DHT22;2310;49.978;8.742;2024-01-30T00:09:41;6.30;99.90
4596;DHT22;2310;49.978;8.742;2024-01-30T00:13:42;6.20;99.90
4596;DHT22;2310;49.978;8.742;2024-01-30T00:17:44;6.10;99.90
4596;DHT22;2310;49.978;8.742;2024-01-30T00:21:45;6.10;99.90
4596;DHT22;2310;49.978;8.742;2024-01-30T00:25:47;6.00;99.90
4596;DHT22;2310;49.978;8.742;2024-01-30T00:29:48;6.10;99.90
4596;DHT22;2310;49.978;8.742;2024-01-30T00:33:50;6.20;99.90
4596;DHT22;2310;49.978;8.742;2024-01-30T00:37:51;6.20;99.90
4596;DHT22;2310;49.978;8.742;2024-01-30T00:41:53;6.10;99.90
4596;DHT22;2310;49.978;8.742;2024-01-30T00:45:54;6.00;99.90
4596;DHT22;2310;49.978;8.742;2024-01-30T00:49:55;6.00;99.90
4596;DHT22;2310;49.978;8.742;2024-01-30T00:53:57;5.90;99.90
4596;DHT22;2310;49.978;8.742;2024-01-30T00:57:58;5.90;99.90
4596;DHT22;2310;49.978;8.742;2024-01-30T01:01:59;5.80;99.90
4596;DHT22;2310;49.978;8.742;2024-01-30T01:06:01;5.80;99.90
4596;DHT22;2310;49.978;8.742;2024-01-30T01:10:02;5.80;99.90
4596;DHT22;2310;49.978;8.742;2024-01-30T01:14:05;5.80;99.90
4596;DHT22;2310;49.978;8.742;2024-01-30T01:18:06;5.80;99.90
4596;DHT22;2310;49.978;8.742;2024-01-30T01:22:07;5.70;99.90
4596;DHT22;2310;49.978;8.742;2024-01-30T01:26:09;5.70;99.90
4596;DHT22;2310;49.978;8.742;2024-01-30T01:30:11;5.70;99.90
4596;DHT22;2310;49.978;8.742;2024-01-30T01:34:14;5.60;99.90
4596;DHT22;2310;49.978;8.742;2024-01-30T01:38:16;5.60;99.90
4596;DHT22;2310;49.978;8.742;2024-01-30T01:42:17;5.50;99.90
4596;DHT22;2310;49.978;8.742;2024-01-30T01:46:18;5.40;99.90
4596;DHT22;2310;49.978;8.742;2024-01-30T01:50:20;5.50;99.90
4596;DHT22;2310;49.978;8.742;2024-01-30T01:54:24;5.40;99.90
4596;DHT22;2310;49.978;8.742;2024-01-30T01:58:27;5.40;99.90
4596;DHT22;2310;49.978;8.742;2024-01-30T02:02:30;5.30;99.90
4596;DHT22;2310;49.978;8.742;2024-01-30T02:06:34;5.30;99.90
4596;DHT22;2310;49.978;8.742;2024-01-30T02:10:36;5.30;99.90
4596;DHT22;2310;49.978;8.742;2024-01-30T02:14:47;5.20;99.90
4596;DHT22;2310;49.978;8.742;2024-01-30T02:18:49;5.20;99.90
4596;DHT22;2310;49.978;8.742;2024-01-30T02:22:52;5.10;99.90
4596;DHT22;2310;49.978;8.742;2024-01-30T02:26:55;5.10;99.90
4596;DHT22;2310;49.978;8.742;2024-01-30T02:30:56;5.30;99.90
4596;DHT22;2310;49.978;8.742;2024-01-30T02:34:58;5.30;99.90
4596;DHT22;2310;49.978;8.742;2024-01-30T02:38:59;5.20;99.90
4596;DHT22;2310;49.978;8.742;2024-01-30T02:43:02;5.20;99.90
4596;DHT22;2310;49.978;8.742;2024-01-30T02:47:04;5.20;99.90
4596;DHT22;2310;49.978;8.742;2024-01-30T02:51:05;5.20;99.90
4596;DHT22;2310;49.978;8.742;2024-01-30T02:55:07;5.20;99.90
4596;DHT22;2310;49.978;8.742;2024-01-30T02:59:08;5.10;99.90
4596;DHT22;2310;49.978;8.742;2024-01-30T03:03:10;5.10;99.90
4596;DHT22;2310;49.978;8.742;2024-01-30T03:07:12;5.10;99.90
4596;DHT22;2310;49.978;8.742;2024-01-30T03:11:13;5.00;99.90
4596;DHT22;2310;49.978;8.742;2024-01-30T03:15:15;4.90;99.90
4596;DHT22;2310;49.978;8.742;2024-01-30T03:19:16;4.80;99.90
4596;DHT22;2310;49.978;8.742;2024-01-30T03:23:18;4.80;99.90
4596;DHT22;2310;49.978;8.742;2024-01-30T03:27:19;4.90;99.90
4596;DHT22;2310;49.978;8.742;2024-01-30T03:31:20;4.70;99.90
4596;DHT22;2310;49.978;8.742;2024-01-30T03:35:22;4.70;99.90
4596;DHT22;2310;49.978;8.742;2024-01-30T03:39:23;4.60;99.90
4596;DHT22;2310;49.978;8.742;2024-01-30T03:43:25;4.70;99.90
4596;DHT22;2310;49.978;8.742;2024-01-30T03:47:26;4.70;99.90
4596;DHT22;2310;49.978;8.742;2024-01-30T03:51:27;4.80;99.90
4596;DHT22;2310;49.978;8.742;2024-01-30T03:55:29;4.70;99.90
4596;DHT22;2310;49.978;8.742;2024-01-30T03:59:30;4.70;99.90
4596;DHT22;2310;49.978;8.742;2024-01-30T04:03:31;4.70;99.90
4596;DHT22;2310;49.978;8.742;2024-01-30T04:07:33;4.70;99.90
4596;DHT22;2310;49.978;8.742;2024-01-30T04:11:35;4.70;99.90
4596;DHT22;2310;49.978;8.742;2024-01-30T04:15:36;4.70;99.90
4596;DHT22;2310;49.978;8.742;2024-01-30T04:19:37;4.70;99.90
4596;DHT22;2310;49.978;8.742;2024-01-30T04:23:41;4.70;99.90
4596;DHT22;2310;49.978;8.742;2024-01-30T04:27:42;4.70;99.90
4596;DHT22;2310;49.978;8.742;2024-01-30T04:31:44;4.70;99.90
4596;DHT22;2310;49.978;8.742;2024-01-30T04:35:45;4.70;99.90
4596;DHT22;2310;49.978;8.742;2024-01-30T04:39:46;4.70;99.90
4596;DHT22;2310;49.978;8.742;2024-01-30T04:43:48;4.60;99.90
4596;DHT22;2310;49.978;8.742;2024-01-30T04:47:49;4.60;99.90
4596;DHT22;2310;49.978;8.742;2024-01-30T04:51:50;4.50;99.90
4596;DHT22;2310;49.978;8.742;2024-01-30T04:55:51;4.50;99.90
4596;DHT22;2310;49.978;8.742;2024-01-30T04:59:53;4.60;99.90
4596;DHT22;2310;49.978;8.742;2024-01-30T05:03:54;4.50;99.90
4596;DHT22;2310;49.978;8.742;2024-01-30T05:07:56;4.60;99.90
4596;DHT22;2310;49.978;8.742;2024-01-30T05:11:57;4.60;99.90
4596;DHT22;2310;49.978;8.742;2024-01-30T05:15:59;4.60;99.90
4596;DHT22;2310;49.978;8.742;2024-01-30T05:20:03;4.60;99.90
4596;DHT22;2310;49.978;8.742;2024-01-30T05:24:06;4.60;99.90
4596;DHT22;2310;49.978;8.742;2024-01-30T05:28:07;4.60;99.90
4596;DHT22;2310;49.978;8.742;2024-01-30T05:32:09;4.60;99.90
4596;DHT22;2310;49.978;8.742;2024-01-30T05:36:12;4.70;99.90
4596;DHT22;2310;49.978;8.742;2024-01-30T05:40:14;4.70;99.90
4596;DHT22;2310;49.978;8.742;2024-01-30T05:44:16;4.80;99.90
4596;DHT22;2310;49.978;8.742;2024-01-30T05:48:17;4.80;99.90
4596;DHT22;2310;49.978;8.742;2024-01-30T05:52:18;4.70;99.90
4596;DHT22;2310;49.978;8.742;2024-01-30T05:56:20;4.80;99.90
4596;DHT22;2310;49.978;8.742;2024-01-30T06:00:22;4.80;99.90
4596;DHT22;2310;49.978;8.742;2024-01-30T06:04:23;4.80;99.90
4596;DHT22;2310;49.978;8.742;2024-01-30T06:08:25;4.70;99.90
4596;DHT22;2310;49.978;8.742;2024-01-30T06:12:27;4.70;99.90
4596;DHT22;2310;49.978;8.742;2024-01-30T06:16:28;4.60;99.90
4596;DHT22;2310;49.978;8.742;2024-01-30T06:20:30;4.60;99.90
4596;DHT22;2310;49.978;8.742;2024-01-30T06:24:32;4.50;99.90
4596;DHT22;2310;49.978;8.742;2024-01-30T06:28:34;4.50;99.90
4596;DHT22;2310;49.978;8.742;2024-01-30T06:32:36;4.50;99.90
4596;DHT22;2310;49.978;8.742;2024-01-30T06:36:38;4.40;99.90
4596;DHT22;2310;49.978;8.742;2024-01-30T06:40:39;4.40;99.90
4596;DHT22;2310;49.978;8.742;2024-01-30T06:44:40;4.40;99.90
4596;DHT22;2310;49.978;8.742;2024-01-30T06:48:42;4.60;99.90
4596;DHT22;2310;49.978;8.742;2024-01-30T06:52:45;4.90;99.90
4596;DHT22;2310;49.978;8.742;2024-01-30T06:56:46;4.70;99.90
4596;DHT22;2310;49.978;8.742;2024-01-30T07:00:48;4.70;99.90
4596;DHT22;2310;49.978;8.742;2024-01-30T07:04:49;4.60;99.90
4596;DHT22;2310;49.978;8.742;2024-01-30T07:08:50;4.50;99.90
4596;DHT22;2310;49.978;8.742;2024-01-30T07:12:52;4.60;99.90
4596;DHT22;2310;49.978;8.742;2024-01-30T07:16:53;4.60;99.90
4596;DHT22;2310;49.978;8.742;2024-01-30T07:20:54;4.50;99.90
4596;DHT22;2310;49.978;8.742;2024-01-30T07:24:56;4.60;99.90
4596;DHT22;2310;49.978;8.742;2024-01-30T07:28:57;4.60;99.90
4596;DHT22;2310;49.978;8.742;2024-01-30T07:32:59;4.60;99.90
4596;DHT22;2310;49.978;8.742;2024-01-30T07:37:02;4.60;99.90
4596;DHT22;2310;49.978;8.742;2024-01-30T07:41:03;4.80;99.90
4596;DHT22;2310;49.978;8.742;2024-01-30T07:45:06;4.70;99.90
4596;DHT22;2310;49.978;8.742;2024-01-30T07:49:09;4.70;99.90
4596;DHT22;2310;49.978;8.742;2024-01-30T07:53:11;4.70;99.90
4596;DHT22;2310;49.978;8.742;2024-01-30T07:57:12;4.70;99.90
4596;DHT22;2310;49.978;8.742;2024-01-30T08:01:15;4.70;99.90
4596;DHT22;2310;49.978;8.742;2024-01-30T08:05:16;4.90;99.90
4596;DHT22;2310;49.978;8.742;2024-01-30T08:09:18;5.10;99.90
4596;DHT22;2310;49.978;8.742;2024-01-30T08:13:19;5.20;99.90
4596;DHT22;2310;49.978;8.742;2024-01-30T08:17:21;5.30;99.90
4596;DHT22;2310;49.978;8.742;2024-01-30T08:21:22;5.40;99.90
4596;DHT22;2310;49.978;8.742;2024-01-30T08:25:24;5.60;99.90
4596;DHT22;2310;49.978;8.742;2024-01-30T08:29:25;5.70;99.90
4596;DHT22;2310;49.978;8.742;2024-01-30T08:33:26;5.80;99.90
4596;DHT22;2310;49.978;8.742;2024-01-30T08:37:28;5.90;99.90
4596;DHT22;2310;49.978;8.742;2024-01-30T08:41:29;6.10;99.90
4596;DHT22;2310;49.978;8.742;2024-01-30T08:45:31;6.10;99.90
4596;DHT22;2310;49.978;8.742;2024-01-30T08:49:32;6.30;99.90
4596;DHT22;2310;49.978;8.742;2024-01-30T08:53:34;6.50;99.90
4596;DHT22;2310;49.978;8.742;2024-01-30T08:57:36;6.60;99.90
4596;DHT22;2310;49.978;8.742;2024-01-30T09:01:38;6.70;99.90
4596;DHT22;2310;49.978;8.742;2024-01-30T09:05:42;7.10;99.90
4596;DHT22;2310;49.978;8.742;2024-01-30T09:09:45;7.30;99.90
4596;DHT22;2310;49.978;8.742;2024-01-30T09:13:47;7.40;99.90
4596;DHT22;2310;49.978;8.742;2024-01-30T09:17:49;7.40;99.90
4596;DHT22;2310;49.978;8.742;2024-01-30T09:21:50;7.70;99.90
4596;DHT22;2310;49.978;8.742;2024-01-30T09:25:52;7.70;99.90
4596;DHT22;2310;49.978;8.742;2024-01-30T09:29:53;7.40;99.90
4596;DHT22;2310;49.978;8.742;2024-01-30T09:33:54;7.80;99.90
4596;DHT22;2310;49.978;8.742;2024-01-30T09:37:56;8.00;99.90
4596;DHT22;2310;49.978;8.742;2024-01-30T09:42:03;8.10;99.90
4596;DHT22;2310;49.978;8.742;2024-01-30T09:46:08;7.80;99.90
4596;DHT22;2310;49.978;8.742;2024-01-30T09:50:13;8.10;99.90
4596;DHT22;2310;49.978;8.742;2024-01-30T09:54:16;7.90;99.90
4596;DHT22;2310;49.978;8.742;2024-01-30T09:58:18;8.20;99.90
4596;DHT22;2310;49.978;8.742;2024-01-30T10:02:20;8.20;99.90
4596;DHT22;2310;49.978;8.742;2024-01-30T10:06:22;8.70;99.90
4596;DHT22;2310;49.978;8.742;2024-01-30T10:10:25;9.00;99.90
4596;DHT22;2310;49.978;8.742;2024-01-30T10:14:27;9.40;99.90
4596;DHT22;2310;49.978;8.742;2024-01-30T10:18:28;9.70;99.90
4596;DHT22;2310;49.978;8.742;2024-01-30T10:22:30;9.70;99.90
4596;DHT22;2310;49.978;8.742;2024-01-30T10:26:32;9.80;99.90
4596;DHT22;2310;49.978;8.742;2024-01-30T10:30:35;10.00;99.90
4596;DHT22;2310;49.978;8.742;2024-01-30T10:34:36;10.10;99.90
4596;DHT22;2310;49.978;8.742;2024-01-30T10:38:40;10.30;99.90
4596;DHT22;2310;49.978;8.742;2024-01-30T10:42:44;10.10;99.90
4596;DHT22;2310;49.978;8.742;2024-01-30T10:46:50;10.50;99.90
4596;DHT22;2310;49.978;8.742;2024-01-30T10:50:51;10.30;99.90
4596;DHT22;2310;49.978;8.742;2024-01-30T10:54:57;10.60;99.90
4596;DHT22;2310;49.978;8.742;2024-01-30T10:58:59;10.30;99.90
4596;DHT22;2310;49.978;8.742;2024-01-30T11:03:01;10.40;99.90
4596;DHT22;2310;49.978;8.742;2024-01-30T11:07:13;10.50;99.90
4596;DHT22;2310;49.978;8.742;2024-01-30T11:11:09;10.60;99.90
4596;DHT22;2310;49.978;8.742;2024-01-30T11:15:13;10.70;99.90
4596;DHT22;2310;49.978;8.742;2024-01-30T11:19:15;10.60;99.90
4596;DHT22;2310;49.978;8.742;2024-01-30T11:23:17;10.70;99.90
4596;DHT22;2310;49.978;8.742;2024-01-30T11:27:20;10.90;99.90
4596;DHT22;2310;49.978;8.742;2024-01-30T11:31:24;11.20;99.90
4596;DHT22;2310;49.978;8.742;2024-01-30T11:35:30;11.50;99.90
4596;DHT22;2310;49.978;8.742;2024-01-30T11:39:32;11.50;99.90
4596;DHT22;2310;49.978;8.742;2024-01-30T11:43:33;11.70;99.90
4596;DHT22;2310;49.978;8.742;2024-01-30T11:47:36;11.90;99.90
4596;DHT22;2310;49.978;8.742;2024-01-30T11:51:40;12.10;99.90
4596;DHT22;2310;49.978;8.742;2024-01-30T11:55:54;12.00;99.90
4596;DHT22;2310;49.978;8.742;2024-01-30T11:59:49;11.80;99.90
4596;DHT22;2310;49.978;8.742;2024-01-30T12:03:51;11.70;99.90
4596;DHT22;2310;49.978;8.742;2024-01-30T12:07:53;11.70;99.90
4596;DHT22;2310;49.978;8.742;2024-01-30T12:11:54;12.00;99.90
4596;DHT22;2310;49.978;8.742;2024-01-30T12:15:58;12.00;99.90
4596;DHT22;2310;49.978;8.742;2024-01-30T12:24:13;12.00;99.90
4596;DHT22;2310;49.978;8.742;2024-01-30T12:28:15;11.60;99.90
4596;DHT22;2310;49.978;8.742;2024-01-30T12:32:16;11.70;99.90
4596;DHT22;2310;49.978;8.742;2024-01-30T12:36:18;12.00;99.90
4596;DHT22;2310;49.978;8.742;2024-01-30T12:40:19;12.20;99.90
4596;DHT22;2310;49.978;8.742;2024-01-30T12:44:21;12.50;99.90
4596;DHT22;2310;49.978;8.742;2024-01-30T12:48:22;12.40;99.90
4596;DHT22;2310;49.978;8.742;2024-01-30T12:52:24;12.80;99.90
4596;DHT22;2310;49.978;8.742;2024-01-30T12:56:26;12.20;99.90
4596;DHT22;2310;49.978;8.742;2024-01-30T13:00:27;12.40;99.90
4596;DHT22;2310;49.978;8.742;2024-01-30T13:04:29;12.50;99.90
4596;DHT22;2310;49.978;8.742;2024-01-30T13:08:30;12.70;99.90
4596;DHT22;2310;49.978;8.742;2024-01-30T13:12:32;12.60;99.90
4596;DHT22;2310;49.978;8.742;2024-01-30T13:16:34;12.80;99.90
4596;DHT22;2310;49.978;8.742;2024-01-30T13:20:36;12.90;99.90
4596;DHT22;2310;49.978;8.742;2024-01-30T13:24:37;12.90;99.90
4596;DHT22;2310;49.978;8.742;2024-01-30T13:28:38;12.60;99.90
4596;DHT22;2310;49.978;8.742;2024-01-30T13:32:40;12.70;99.90
4596;DHT22;2310;49.978;8.742;2024-01-30T13:36:42;12.60;99.90
4596;DHT22;2310;49.978;8.742;2024-01-30T13:40:44;12.40;99.90
4596;DHT22;2310;49.978;8.742;2024-01-30T13:44:45;12.50;99.90
4596;DHT22;2310;49.978;8.742;2024-01-30T13:48:47;12.30;99.90
4596;DHT22;2310;49.978;8.742;2024-01-30T13:52:48;12.20;99.90
4596;DHT22;2310;49.978;8.742;2024-01-30T13:56:50;12.30;99.90
4596;DHT22;2310;49.978;8.742;2024-01-30T14:00:51;12.50;99.90
4596;DHT22;2310;49.978;8.742;2024-01-30T14:04:53;12.50;99.90
4596;DHT22;2310;49.978;8.742;2024-01-30T14:08:54;12.30;99.90
4596;DHT22;2310;49.978;8.742;2024-01-30T14:12:57;12.40;99.90
4596;DHT22;2310;49.978;8.742;2024-01-30T14:16:59;12.60;99.90
4596;DHT22;2310;49.978;8.742;2024-01-30T14:21:00;12.20;99.90
4596;DHT22;2310;49.978;8.742;2024-01-30T14:25:02;12.50;99.90
4596;DHT22;2310;49.978;8.742;2024-01-30T14:29:05;12.50;99.90
4596;DHT22;2310;49.978;8.742;2024-01-30T14:33:06;12.50;99.90
4596;DHT22;2310;49.978;8.742;2024-01-30T14:37:08;12.50;99.90
4596;DHT22;2310;49.978;8.742;2024-01-30T14:41:10;12.70;99.90
4596;DHT22;2310;49.978;8.742;2024-01-30T14:45:11;12.70;99.90
4596;DHT22;2310;49.978;8.742;2024-01-30T14:49:12;12.80;99.90
4596;DHT22;2310;49.978;8.742;2024-01-30T14:53:14;12.70;99.90
4596;DHT22;2310;49.978;8.742;2024-01-30T14:57:15;12.70;99.90
4596;DHT22;2310;49.978;8.742;2024-01-30T15:01:17;12.80;99.90
4596;DHT22;2310;49.978;8.742;2024-01-30T15:05:19;12.60;99.90
4596;DHT22;2310;49.978;8.742;2024-01-30T15:09:21;12.60;99.90
4596;DHT22;2310;49.978;8.742;2024-01-30T15:13:23;12.60;99.90
4596;DHT22;2310;49.978;8.742;2024-01-30T15:17:24;12.60;99.90
4596;DHT22;2310;49.978;8.742;2024-01-30T15:21:26;12.50;99.90
4596;DHT22;2310;49.978;8.742;2024-01-30T15:25:29;12.50;99.90
4596;DHT22;2310;49.978;8.742;2024-01-30T15:29:30;12.40;99.90
4596;DHT22;2310;49.978;8.742;2024-01-30T15:33:33;12.40;99.90
4596;DHT22;2310;49.978;8.742;2024-01-30T15:37:34;12.40;99.90
4596;DHT22;2310;49.978;8.742;2024-01-30T15:41:36;12.40;99.90
4596;DHT22;2310;49.978;8.742;2024-01-30T15:45:37;12.40;99.90
4596;DHT22;2310;49.978;8.742;2024-01-30T15:49:39;12.30;99.90
4596;DHT22;2310;49.978;8.742;2024-01-30T15:53:40;12.30;99.90
4596;DHT22;2310;49.978;8.742;2024-01-30T15:57:43;12.20;99.90
4596;DHT22;2310;49.978;8.742;2024-01-30T16:01:44;12.20;99.90
4596;DHT22;2310;49.978;8.742;2024-01-30T16:05:50;12.10;99.90
4596;DHT22;2310;49.978;8.742;2024-01-30T16:09:51;12.10;99.90
4596;DHT22;2310;49.978;8.742;2024-01-30T16:13:52;12.10;99.90
4596;DHT22;2310;49.978;8.742;2024-01-30T16:17:54;12.00;99.90
4596;DHT22;2310;49.978;8.742;2024-01-30T16:21:55;12.00;99.90
4596;DHT22;2310;49.978;8.742;2024-01-30T16:25:56;12.00;99.90
4596;DHT22;2310;49.978;8.742;2024-01-30T16:29:59;12.00;99.90
4596;DHT22;2310;49.978;8.742;2024-01-30T16:34:00;12.00;99.90
4596;DHT22;2310;49.978;8.742;2024-01-30T16:38:02;12.10;99.90
4596;DHT22;2310;49.978;8.742;2024-01-30T16:42:04;12.00;99.90
4596;DHT22;2310;49.978;8.742;2024-01-30T16:46:05;12.00;99.90
4596;DHT22;2310;49.978;8.742;2024-01-30T16:50:07;11.90;99.90
4596;DHT22;2310;49.978;8.742;2024-01-30T16:54:08;11.90;99.90
4596;DHT22;2310;49.978;8.742;2024-01-30T16:58:09;11.90;99.90
4596;DHT22;2310;49.978;8.742;2024-01-30T17:02:12;11.90;99.90
4596;DHT22;2310;49.978;8.742;2024-01-30T17:06:14;11.90;99.90
4596;DHT22;2310;49.978;8.742;2024-01-30T17:10:15;12.10;99.90
4596;DHT22;2310;49.978;8.742;2024-01-30T17:14:19;11.90;99.90
4596;DHT22;2310;49.978;8.742;2024-01-30T17:18:21;12.00;99.90
4596;DHT22;2310;49.978;8.742;2024-01-30T17:22:22;11.90;99.90
4596;DHT22;2310;49.978;8.742;2024-01-30T17:26:24;11.90;99.90
4596;DHT22;2310;49.978;8.742;2024-01-30T17:30:27;11.80;99.90
4596;DHT22;2310;49.978;8.742;2024-01-30T17:34:29;11.70;99.90
4596;DHT22;2310;49.978;8.742;2024-01-30T17:38:30;11.80;99.90
4596;DHT22;2310;49.978;8.742;2024-01-30T17:42:32;11.80;99.90
4596;DHT22;2310;49.978;8.742;2024-01-30T17:46:35;11.80;99.90
4596;DHT22;2310;49.978;8.742;2024-01-30T17:50:36;11.80;99.90
4596;DHT22;2310;49.978;8.742;2024-01-30T17:54:38;11.70;99.90
4596;DHT22;2310;49.978;8.742;2024-01-30T17:58:39;11.70;99.90
4596;DHT22;2310;49.978;8.742;2024-01-30T18:02:42;11.70;99.90
4596;DHT22;2310;49.978;8.742;2024-01-30T18:06:51;11.50;99.90
4596;DHT22;2310;49.978;8.742;2024-01-30T18:10:54;11.50;99.90
4596;DHT22;2310;49.978;8.742;2024-01-30T18:14:56;11.50;99.90
4596;DHT22;2310;49.978;8.742;2024-01-30T18:18:58;11.40;99.90
4596;DHT22;2310;49.978;8.742;2024-01-30T18:22:59;11.30;99.90
4596;DHT22;2310;49.978;8.742;2024-01-30T18:27:00;11.30;99.90
4596;DHT22;2310;49.978;8.742;2024-01-30T18:31:02;11.20;99.90
4596;DHT22;2310;49.978;8.742;2024-01-30T18:35:04;11.10;99.90
4596;DHT22;2310;49.978;8.742;2024-01-30T18:39:06;11.00;99.90
4596;DHT22;2310;49.978;8.742;2024-01-30T18:43:07;11.00;99.90
4596;DHT22;2310;49.978;8.742;2024-01-30T18:47:09;11.00;99.90
4596;DHT22;2310;49.978;8.742;2024-01-30T18:51:15;10.90;99.90
4596;DHT22;2310;49.978;8.742;2024-01-30T18:55:17;10.90;99.90
4596;DHT22;2310;49.978;8.742;2024-01-30T18:59:18;11.00;99.90
4596;DHT22;2310;49.978;8.742;2024-01-30T19:03:20;11.00;99.90
4596;DHT22;2310;49.978;8.742;2024-01-30T19:07:22;11.00;99.90
4596;DHT22;2310;49.978;8.742;2024-01-30T19:11:23;11.10;99.90
4596;DHT22;2310;49.978;8.742;2024-01-30T19:15:24;11.10;99.90
4596;DHT22;2310;49.978;8.742;2024-01-30T19:19:26;11.10;99.90
4596;DHT22;2310;49.978;8.742;2024-01-30T19:23:28;11.00;99.90
4596;DHT22;2310;49.978;8.742;2024-01-30T19:27:29;11.10;99.90
4596;DHT22;2310;49.978;8.742;2024-01-30T19:31:32;10.90;99.90
4596;DHT22;2310;49.978;8.742;2024-01-30T19:35:33;11.00;99.90
4596;DHT22;2310;49.978;8.742;2024-01-30T19:39:35;11.10;99.90
4596;DHT22;2310;49.978;8.742;2024-01-30T19:43:36;11.20;99.90
4596;DHT22;2310;49.978;8.742;2024-01-30T19:47:37;11.20;99.90
4596;DHT22;2310;49.978;8.742;2024-01-30T19:51:39;11.30;99.90
4596;DHT22;2310;49.978;8.742;2024-01-30T19:55:40;11.30;99.90
4596;DHT22;2310;49.978;8.742;2024-01-30T19:59:42;11.40;99.90
4596;DHT22;2310;49.978;8.742;2024-01-30T20:03:43;11.40;99.90
4596;DHT22;2310;49.978;8.742;2024-01-30T20:07:45;11.30;99.90
4596;DHT22;2310;49.978;8.742;2024-01-30T20:11:47;11.40;99.90
4596;DHT22;2310;49.978;8.742;2024-01-30T20:15:49;11.30;99.90
4596;DHT22;2310;49.978;8.742;2024-01-30T20:19:52;11.00;99.90
4596;DHT22;2310;49.978;8.742;2024-01-30T20:23:57;10.80;99.90
4596;DHT22;2310;49.978;8.742;2024-01-30T20:27:59;10.80;99.90
4596;DHT22;2310;49.978;8.742;2024-01-30T20:32:02;10.70;99.90
4596;DHT22;2310;49.978;8.742;2024-01-30T20:36:08;10.90;99.90
4596;DHT22;2310;49.978;8.742;2024-01-30T20:40:09;11.00;99.90
4596;DHT22;2310;49.978;8.742;2024-01-30T20:44:11;11.00;99.90
4596;DHT22;2310;49.978;8.742;2024-01-30T20:48:15;11.10;99.90
4596;DHT22;2310;49.978;8.742;2024-01-30T20:52:18;11.10;99.90
4596;DHT22;2310;49.978;8.742;2024-01-30T20:56:20;11.00;99.90
4596;DHT22;2310;49.978;8.742;2024-01-30T21:00:21;11.10;99.90
4596;DHT22;2310;49.978;8.742;2024-01-30T21:04:23;11.20;99.90
4596;DHT22;2310;49.978;8.742;2024-01-30T21:08:25;11.30;99.90
4596;DHT22;2310;49.978;8.742;2024-01-30T21:12:27;11.30;99.90
4596;DHT22;2310;49.978;8.742;2024-01-30T21:16:29;11.40;99.90
4596;DHT22;2310;49.978;8.742;2024-01-30T21:20:31;11.50;99.90
4596;DHT22;2310;49.978;8.742;2024-01-30T21:24:32;11.60;99.90
4596;DHT22;2310;49.978;8.742;2024-01-30T21:28:34;11.70;99.90
4596;DHT22;2310;49.978;8.742;2024-01-30T21:32:36;11.90;99.90
4596;DHT22;2310;49.978;8.742;2024-01-30T21:36:38;11.90;99.90
4596;DHT22;2310;49.978;8.742;2024-01-30T21:40:40;11.90;99.90
4596;DHT22;2310;49.978;8.742;2024-01-30T21:44:41;12.00;99.90
4596;DHT22;2310;49.978;8.742;2024-01-30T21:48:43;12.00;99.90
4596;DHT22;2310;49.978;8.742;2024-01-30T21:52:44;12.00;99.90
4596;DHT22;2310;49.978;8.742;2024-01-30T21:56:45;12.10;99.90
4596;DHT22;2310;49.978;8.742;2024-01-30T22:00:47;12.20;99.90
4596;DHT22;2310;49.978;8.742;2024-01-30T22:04:48;12.10;99.90
4596;DHT22;2310;49.978;8.742;2024-01-30T22:08:51;12.20;99.90
4596;DHT22;2310;49.978;8.742;2024-01-30T22:12:53;12.10;99.90
4596;DHT22;2310;49.978;8.742;2024-01-30T22:16:54;12.10;99.90
4596;DHT22;2310;49.978;8.742;2024-01-30T22:20:55;12.10;99.90
4596;DHT22;2310;49.978;8.742;2024-01-30T22:24:57;12.20;99.90
4596;DHT22;2310;49.978;8.742;2024-01-30T22:28:58;12.00;99.90
4596;DHT22;2310;49.978;8.742;2024-01-30T22:33:00;12.20;99.90
4596;DHT22;2310;49.978;8.742;2024-01-30T22:37:01;12.20;99.90
4596;DHT22;2310;49.978;8.742;2024-01-30T22:41:03;12.20;99.90
4596;DHT22;2310;49.978;8.742;2024-01-30T22:45:06;12.20;99.90
4596;DHT22;2310;49.978;8.742;2024-01-30T22:49:07;12.30;99.90
4596;DHT22;2310;49.978;8.742;2024-01-30T22:53:09;12.30;99.90
4596;DHT22;2310;49.978;8.742;2024-01-30T22:57:11;12.30;99.90
4596;DHT22;2310;49.978;8.742;2024-01-30T23:01:13;12.20;99.90
4596;DHT22;2310;49.978;8.742;2024-01-30T23:05:14;12.00;99.90
4596;DHT22;2310;49.978;8.742;2024-01-30T23:09:16;11.70;99.90
4596;DHT22;2310;49.978;8.742;2024-01-30T23:13:18;11.80;99.90
4596;DHT22;2310;49.978;8.742;2024-01-30T23:17:19;11.80;99.90
4596;DHT22;2310;49.978;8.742;2024-01-30T23:21:20;11.80;99.90
4596;DHT22;2310;49.978;8.742;2024-01-30T23:25:22;11.40;99.90
4596;DHT22;2310;49.978;8.742;2024-01-30T23:29:23;11.20;99.90
4596;DHT22;2310;49.978;8.742;2024-01-30T23:33:25;11.00;99.90
4596;DHT22;2310;49.978;8.742;2024-01-30T23:37:26;10.90;99.90
4596;DHT22;2310;49.978;8.742;2024-01-30T23:41:28;11.00;99.90
4596;DHT22;2310;49.978;8.742;2024-01-30T23:45:29;11.10;99.90
4596;DHT22;2310;49.978;8.742;2024-01-30T23:49:31;11.10;99.90
4596;DHT22;2310;49.978;8.742;2024-01-30T23:53:32;11.10;99.90
4596;DHT22;2310;49.978;8.742;2024-01-30T23:57:35;11.10;99.90
